Time;durP1;ratioP1;P1;durP2;ratioP2;P2;SDS_P1;SDS_P2;PMS_P1;PMS_P2;Temp;Humidity;BMP_temperature;BMP_pressure;BME280_temperature;BME280_humidity;BME280_pressure;Samples;Min_cycle;Max_cycle;Signal;HPM_P1;HPM_P2
2024/01/31 00:01:50;;;;;;;4.90;1.20;;;;;;;;;;5054288;28;20053;-64
2024/01/31 00:04:15;;;;;;;3.08;1.00;;;12.20;96.90;;;;;;5054928;28;20360;-64
2024/01/31 00:06:41;;;;;;;5.88;1.65;;;12.20;97.50;;;;;;5054150;28;20048;-64
2024/01/31 00:09:09;;;;;;;5.68;1.33;;;;;;;;;;5052960;28;20045;-64
2024/01/31 00:11:35;;;;;;;5.45;1.17;;;12.20;96.70;;;;;;5053996;28;20049;-65
2024/01/31 00:14:02;;;;;;;3.50;1.23;;;12.20;96.90;;;;;;5054192;28;20132;-65
2024/01/31 00:16:28;;;;;;;4.00;0.98;;;;;;;;;;5052489;28;20142;-65
2024/01/31 00:18:54;;;;;;;3.63;1.20;;;;;;;;;;5054169;28;20060;-66
2024/01/31 00:21:20;;;;;;;4.38;1.27;;;12.20;97.50;;;;;;5054773;28;20394;-65
2024/01/31 00:23:46;;;;;;;4.28;1.08;;;;;;;;;;5053993;28;20049;-65
2024/01/31 00:26:12;;;;;;;4.05;1.15;;;;;;;;;;5051725;28;20049;-64
2024/01/31 00:28:38;;;;;;;4.10;1.13;;;;;;;;;;5053083;28;20110;-64
2024/01/31 00:31:04;;;;;;;3.83;1.10;;;;;;;;;;5052413;28;20076;-64
2024/01/31 00:33:30;;;;;;;4.20;1.25;;;12.30;97.50;;;;;;5053954;28;20053;-64
2024/01/31 00:35:56;;;;;;;5.28;1.10;;;;;;;;;;5053846;28;20114;-64
2024/01/31 00:38:22;;;;;;;4.65;1.00;;;12.20;97.50;;;;;;5066740;28;20052;-64
2024/01/31 00:40:48;;;;;;;4.03;1.10;;;12.30;97.50;;;;;;5069223;28;20118;-64
2024/01/31 00:43:14;;;;;;;4.00;1.23;;;;;;;;;;5052430;28;20048;-64
2024/01/31 00:45:40;;;;;;;3.05;0.90;;;;;;;;;;5053461;28;20057;-66
2024/01/31 00:48:06;;;;;;;4.43;1.20;;;12.20;95.90;;;;;;5053300;28;20053;-65
2024/01/31 00:50:31;;;;;;;5.72;1.58;;;12.20;97.50;;;;;;5053668;28;20109;-64
2024/01/31 00:52:57;;;;;;;4.15;1.10;;;12.20;97.50;;;;;;5053226;28;20378;-65
2024/01/31 00:55:23;;;;;;;2.72;0.93;;;;;;;;;;5052432;28;20044;-64
2024/01/31 00:57:49;;;;;;;5.68;1.45;;;12.20;96.80;;;;;;5053495;28;20053;-66
2024/01/31 01:00:16;;;;;;;3.40;1.10;;;;;;;;;;5053117;28;20076;-64
2024/01/31 01:02:42;;;;;;;3.72;1.08;;;12.30;97.40;;;;;;5053063;28;20140;-64
2024/01/31 01:05:08;;;;;;;4.18;0.90;;;12.10;96.30;;;;;;5053256;28;20135;-64
2024/01/31 01:07:36;;;;;;;5.53;1.30;;;;;;;;;;5051619;28;20520;-64
2024/01/31 01:10:02;;;;;;;6.53;1.33;;;12.20;97.40;;;;;;5051958;28;20049;-64
2024/01/31 01:12:28;;;;;;;6.18;1.48;;;12.30;97.50;;;;;;5067575;28;20549;-63
2024/01/31 01:14:53;;;;;;;2.75;0.90;;;12.20;97.40;;;;;;5073067;28;20489;-64
2024/01/31 01:17:19;;;;;;;4.75;1.02;;;;;;;;;;5053357;28;20107;-65
2024/01/31 01:19:45;;;;;;;4.72;1.30;;;;;;;;;;5051737;28;20053;-65
2024/01/31 01:22:11;;;;;;;4.95;1.33;;;;;;;;;;5051477;28;20049;-65
2024/01/31 01:24:37;;;;;;;4.75;1.10;;;;;;;;;;5052585;28;20085;-64
2024/01/31 01:27:03;;;;;;;4.88;1.20;;;12.40;97.50;;;;;;5052819;28;20041;-64
2024/01/31 01:29:30;;;;;;;4.10;1.50;;;;;;;;;;5053335;28;20064;-66
2024/01/31 01:31:55;;;;;;;3.25;1.05;;;12.20;97.30;;;;;;5052451;28;20552;-64
2024/01/31 01:34:21;;;;;;;3.72;1.30;;;12.20;97.40;;;;;;5051197;28;20040;-64
2024/01/31 01:36:47;;;;;;;4.18;1.13;;;12.20;97.40;;;;;;5051058;28;20053;-63
2024/01/31 01:39:12;;;;;;;4.78;1.20;;;12.20;96.10;;;;;;5052132;28;20049;-64
2024/01/31 01:41:38;;;;;;;4.47;1.42;;;;;;;;;;5052662;28;20049;-66
2024/01/31 01:44:04;;;;;;;4.13;1.15;;;12.20;97.30;;;;;;5052191;28;20549;-64
2024/01/31 01:46:30;;;;;;;5.03;1.48;;;;;;;;;;5066756;28;20124;-65
2024/01/31 01:48:56;;;;;;;3.97;1.27;;;12.20;97.30;;;;;;5054327;28;20504;-64
2024/01/31 01:51:23;;;;;;;6.25;1.33;;;12.10;97.40;;;;;;5072115;28;20049;-64
2024/01/31 01:53:49;;;;;;;9.38;1.50;;;12.10;97.30;;;;;;5072220;28;20044;-65
2024/01/31 01:56:15;;;;;;;4.30;1.30;;;;;;;;;;5072397;28;20043;-64
2024/01/31 01:58:41;;;;;;;4.45;1.27;;;;;;;;;;5072391;28;20067;-65
2024/01/31 02:01:07;;;;;;;3.85;1.05;;;12.20;97.30;;;;;;5070756;28;20048;-64
2024/01/31 02:03:33;;;;;;;5.53;1.42;;;;;;;;;;5071171;28;20478;-65
2024/01/31 02:06:03;;;;;;;5.40;1.20;;;12.10;96.20;;;;;;5071976;28;20492;-65
2024/01/31 02:08:29;;;;;;;4.70;1.30;;;;;;;;;;5057650;28;20059;-64
2024/01/31 02:10:55;;;;;;;5.88;1.10;;;;;;;;;;5050568;28;20049;-65
2024/01/31 02:13:22;;;;;;;5.00;1.27;;;12.00;97.00;;;;;;5051797;28;20213;-64
2024/01/31 02:15:54;;;;;;;4.93;1.50;;;12.10;96.20;;;;;;5046198;28;20059;-65
2024/01/31 02:18:21;;;;;;;3.25;1.25;;;12.00;97.20;;;;;;5031859;28;20056;-64
2024/01/31 02:20:47;;;;;;;3.58;1.20;;;12.10;97.20;;;;;;5048563;28;20045;-65
2024/01/31 02:23:12;;;;;;;3.90;0.93;;;12.10;97.10;;;;;;5051577;28;20103;-65
2024/01/31 02:25:38;;;;;;;5.50;1.02;;;12.20;97.00;;;;;;5050341;28;20048;-64
2024/01/31 02:28:04;;;;;;;3.97;1.10;;;12.20;97.00;;;;;;5051596;28;20078;-64
2024/01/31 02:30:30;;;;;;;4.57;1.33;;;;;;;;;;5050316;28;20045;-64
2024/01/31 02:32:56;;;;;;;5.78;1.10;;;;;;;;;;5051583;28;20052;-64
2024/01/31 02:35:22;;;;;;;5.40;1.23;;;;;;;;;;5051899;28;20481;-64
2024/01/31 02:37:48;;;;;;;4.35;1.17;;;;;;;;;;5067228;28;20052;-65
2024/01/31 02:40:15;;;;;;;5.35;1.25;;;;;;;;;;5071457;28;20057;-64
2024/01/31 02:42:41;;;;;;;4.80;1.33;;;12.00;97.00;;;;;;5071515;28;20135;-65
2024/01/31 02:45:08;;;;;;;3.35;1.00;;;;;;;;;;5071572;28;20486;-65
2024/01/31 02:47:33;;;;;;;3.67;1.10;;;12.20;97.00;;;;;;5070443;28;20114;-64
2024/01/31 02:50:03;;;;;;;3.10;1.00;;;11.90;95.80;;;;;;5071440;28;20048;-64
2024/01/31 02:52:29;;;;;;;5.47;1.25;;;;;;;;;;5071820;28;20037;-64
2024/01/31 02:54:54;;;;;;;4.90;1.30;;;12.00;96.90;;;;;;5052186;28;20070;-63
2024/01/31 02:57:20;;;;;;;5.05;1.27;;;;;;;;;;5051747;28;20049;-63
2024/01/31 02:59:46;;;;;;;4.13;0.90;;;;;;;;;;5050483;28;20049;-65
2024/01/31 03:02:16;;;;;;;6.40;1.33;;;;;;;;;;5050353;28;20132;-65
2024/01/31 03:04:42;;;;;;;4.63;1.20;;;;;;;;;;5050002;28;20057;-64
2024/01/31 03:07:08;;;;;;;4.20;1.02;;;;;;;;;;5051136;28;20124;-64
2024/01/31 03:09:34;;;;;;;4.07;0.93;;;;;;;;;;5051535;28;20132;-64
2024/01/31 03:12:00;;;;;;;3.97;1.10;;;;;;;;;;5050140;28;20041;-64
2024/01/31 03:14:26;;;;;;;3.35;1.10;;;;;;;;;;5051205;28;20084;-64
2024/01/31 03:16:52;;;;;;;3.85;1.10;;;;;;;;;;5051431;28;20497;-64
2024/01/31 03:19:18;;;;;;;3.40;1.00;;;;;;;;;;5051445;28;20596;-66
2024/01/31 03:21:44;;;;;;;4.03;1.13;;;;;;;;;;5051168;28;20072;-64
2024/01/31 03:24:10;;;;;;;3.90;1.10;;;;;;;;;;5051358;28;20129;-63
2024/01/31 03:26:36;;;;;;;3.75;1.33;;;;;;;;;;5051409;28;20084;-64
2024/01/31 03:29:02;;;;;;;3.65;1.27;;;;;;;;;;5050697;28;20045;-64
2024/01/31 03:31:29;;;;;;;4.05;1.30;;;;;;;;;;5031465;28;20045;-65
2024/01/31 03:33:55;;;;;;;6.30;1.52;;;;;;;;;;5031509;28;20430;-66
2024/01/31 03:36:21;;;;;;;4.38;1.08;;;;;;;;;;5030170;28;20425;-65
2024/01/31 03:38:46;;;;;;;3.00;1.10;;;12.00;96.60;;;;;;5031062;28;20103;-68
2024/01/31 03:41:12;;;;;;;4.95;1.25;;;;;;;;;;5032300;28;20681;-69
2024/01/31 03:43:38;;;;;;;3.35;0.93;;;12.10;96.70;;;;;;5033508;28;20080;-69
2024/01/31 03:46:05;;;;;;;2.65;0.70;;;;;;;;;;5073952;28;20489;-67
2024/01/31 03:48:31;;;;;;;4.90;1.00;;;;;;;;;;5073285;28;20049;-67
2024/01/31 03:51:00;;;;;;;3.13;1.05;;;12.00;96.60;;;;;;5074521;28;20091;-70
2024/01/31 03:53:26;;;;;;;4.30;0.93;;;;;;;;;;5074407;28;20036;-68
2024/01/31 03:55:52;;;;;;;5.20;1.10;;;;;;;;;;5074597;28;20048;-67
2024/01/31 03:58:18;;;;;;;3.78;1.20;;;;;;;;;;5074635;28;20040;-67
2024/01/31 04:00:44;;;;;;;3.78;0.85;;;;;;;;;;5072844;28;20051;-69
2024/01/31 04:03:10;;;;;;;3.15;1.00;;;;;;;;;;5073882;28;20520;-68
2024/01/31 04:05:36;;;;;;;2.85;0.80;;;;;;;;;;5074152;28;20048;-66
2024/01/31 04:08:02;;;;;;;5.25;1.00;;;12.10;96.50;;;;;;5073963;28;20037;-68
2024/01/31 04:10:28;;;;;;;2.28;0.80;;;;;;;;;;5074391;28;20095;-68
2024/01/31 04:12:54;;;;;;;4.05;0.90;;;;;;;;;;5073000;28;20052;-67
2024/01/31 04:15:20;;;;;;;4.00;1.05;;;;;;;;;;5054972;28;20864;-69
2024/01/31 04:17:46;;;;;;;3.63;1.02;;;;;;;;;;5053210;28;20107;-69
2024/01/31 04:20:13;;;;;;;3.90;1.00;;;;;;;;;;5054120;28;20413;-67
2024/01/31 04:22:39;;;;;;;2.03;0.60;;;;;;;;;;5053816;28;20049;-68
2024/01/31 04:25:05;;;;;;;4.40;1.15;;;;;;;;;;5053783;28;20063;-70
2024/01/31 04:27:31;;;;;;;4.05;1.10;;;;;;;;;;5054066;28;20041;-70
2024/01/31 04:29:57;;;;;;;3.33;0.93;;;;;;;;;;5052463;28;20049;-70
2024/01/31 04:32:24;;;;;;;4.80;1.33;;;;;;;;;;5052413;28;20052;-68
2024/01/31 04:34:50;;;;;;;4.40;0.93;;;;;;;;;;5054271;28;20053;-68
2024/01/31 04:37:16;;;;;;;5.38;1.00;;;;;;;;;;5053549;28;20466;-66
2024/01/31 04:39:43;;;;;;;2.50;0.88;;;12.00;96.30;;;;;;5052110;28;20124;-68
2024/01/31 04:42:09;;;;;;;3.88;1.27;;;;;;;;;;5052522;28;20458;-67
2024/01/31 04:44:35;;;;;;;3.08;0.80;;;;;;;;;;5052009;28;20059;-69
2024/01/31 04:47:02;;;;;;;4.53;1.20;;;;;;;;;;5053464;28;20056;-68
2024/01/31 04:49:28;;;;;;;4.57;1.40;;;11.90;96.20;;;;;;5053705;28;20044;-70
2024/01/31 04:51:54;;;;;;;4.78;1.20;;;11.90;96.20;;;;;;5053544;28;20053;-69
2024/01/31 04:54:20;;;;;;;4.43;1.20;;;;;;;;;;5051535;28;20056;-67
2024/01/31 04:56:46;;;;;;;4.97;1.17;;;;;;;;;;5053207;28;20047;-70
2024/01/31 04:59:12;;;;;;;4.43;1.10;;;12.10;96.30;;;;;;5053240;28;20066;-67
2024/01/31 05:01:38;;;;;;;6.07;1.23;;;;;;;;;;5053411;28;20108;-68
2024/01/31 05:04:04;;;;;;;4.82;1.10;;;12.00;96.20;;;;;;5051725;28;20053;-68
2024/01/31 05:06:30;;;;;;;3.90;1.10;;;12.10;96.20;;;;;;5053036;28;20116;-67
2024/01/31 05:08:55;;;;;;;3.63;1.00;;;11.90;96.00;;;;;;5053620;28;20582;-69
2024/01/31 05:11:21;;;;;;;4.25;0.90;;;;;;;;;;5053495;28;20052;-69
2024/01/31 05:13:47;;;;;;;3.65;0.57;;;12.00;96.50;;;;;;5052068;28;20490;-68
2024/01/31 05:16:13;;;;;;;3.75;1.17;;;;;;;;;;5042593;28;20046;-68
2024/01/31 05:18:39;;;;;;;4.28;1.15;;;11.80;96.20;;;;;;5033787;28;20380;-69
2024/01/31 05:21:08;;;;;;;4.68;1.00;;;;;;;;;;4999597;28;20340;-67
2024/01/31 05:23:33;;;;;;;3.72;1.17;;;11.70;96.10;;;;;;5033261;28;20049;-69
2024/01/31 05:25:59;;;;;;;4.22;0.90;;;11.90;96.10;;;;;;5037125;28;20550;-69
2024/01/31 05:28:25;;;;;;;3.65;0.98;;;;;;;;;;5073197;28;20049;-67
2024/01/31 05:30:52;;;;;;;4.45;1.10;;;;;;;;;;5071274;28;20080;-67
2024/01/31 05:33:18;;;;;;;3.80;0.57;;;;;;;;;;5072814;28;20053;-67
2024/01/31 05:35:44;;;;;;;5.22;0.85;;;;;;;;;;5071470;28;20436;-69
2024/01/31 05:38:10;;;;;;;4.05;1.08;;;;;;;;;;5072425;28;20079;-70
2024/01/31 05:40:38;;;;;;;4.82;1.25;;;;;;;;;;5072171;28;20052;-69
2024/01/31 05:43:04;;;;;;;4.10;1.35;;;11.80;96.00;;;;;;5071764;28;20461;-70
2024/01/31 05:45:30;;;;;;;4.80;1.30;;;;;;;;;;5071358;28;20123;-69
2024/01/31 05:47:56;;;;;;;4.32;1.25;;;;;;;;;;5072893;28;20136;-70
2024/01/31 05:50:21;;;;;;;3.20;1.05;;;11.80;96.00;;;;;;5071652;28;20178;-69
2024/01/31 05:52:48;;;;;;;3.40;1.17;;;;;;;;;;5072240;28;20052;-67
2024/01/31 05:55:15;;;;;;;5.07;1.58;;;;;;;;;;5072430;28;20387;-69
2024/01/31 05:57:41;;;;;;;4.32;1.30;;;;;;;;;;5072364;28;20055;-68
2024/01/31 06:00:09;;;;;;;6.35;1.73;;;;;;;;;;5071300;28;20048;-66
2024/01/31 06:02:35;;;;;;;5.57;1.30;;;;;;;;;;5071090;28;20060;-68
2024/01/31 06:05:01;;;;;;;4.03;0.82;;;12.00;96.30;;;;;;5071879;28;20052;-69
2024/01/31 06:07:27;;;;;;;4.80;1.25;;;11.80;95.80;;;;;;5070423;28;20058;-66
2024/01/31 06:09:53;;;;;;;3.78;0.90;;;;;;;;;;5052211;28;20118;-67
2024/01/31 06:12:19;;;;;;;3.17;0.80;;;;;;;;;;5052183;28;20049;-68
2024/01/31 06:14:44;;;;;;;4.00;0.88;;;11.80;94.90;;;;;;5052239;28;20052;-69
2024/01/31 06:17:10;;;;;;;2.25;0.73;;;11.70;95.30;;;;;;5039785;28;20241;-67
2024/01/31 06:19:38;;;;;;;3.65;1.08;;;;;;;;;;5052104;28;20494;-67
2024/01/31 06:22:04;;;;;;;5.15;1.02;;;;;;;;;;5050771;28;20768;-68
2024/01/31 06:24:30;;;;;;;3.40;0.70;;;;;;;;;;5051945;28;20064;-68
2024/01/31 06:26:55;;;;;;;5.07;1.35;;;11.80;95.80;;;;;;5050429;28;20134;-66
2024/01/31 06:29:21;;;;;;;4.07;1.10;;;11.80;94.50;;;;;;5051939;28;20467;-66
2024/01/31 06:31:48;;;;;;;3.30;1.00;;;11.80;95.80;;;;;;5050127;28;20037;-71
2024/01/31 06:34:14;;;;;;;3.13;0.60;;;;;;;;;;5054555;28;20056;-68
2024/01/31 06:36:40;;;;;;;3.13;0.70;;;;;;;;;;5071648;28;20117;-68
2024/01/31 06:39:06;;;;;;;3.50;0.90;;;11.70;95.70;;;;;;5071595;28;20045;-69
2024/01/31 06:41:34;;;;;;;3.70;0.90;;;11.90;94.40;;;;;;5071401;28;20490;-67
2024/01/31 06:44:00;;;;;;;3.42;1.20;;;11.60;95.60;;;;;;5070332;28;20559;-67
2024/01/31 06:46:26;;;;;;;2.10;0.90;;;;;;;;;;5070263;28;20045;-67
2024/01/31 06:48:52;;;;;;;3.70;1.00;;;11.80;95.60;;;;;;5070213;28;20051;-68
2024/01/31 06:51:17;;;;;;;5.18;1.40;;;11.60;95.60;;;;;;5069417;28;20045;-68
2024/01/31 06:53:44;;;;;;;3.30;1.02;;;11.60;94.30;;;;;;5071428;28;20087;-68
2024/01/31 06:56:16;;;;;;;4.40;1.00;;;;;;;;;;5071525;28;20049;-69
2024/01/31 06:58:43;;;;;;;2.87;0.60;;;;;;;;;;5070085;28;20504;-69
2024/01/31 07:01:08;;;;;;;3.28;1.10;;;11.70;94.70;;;;;;5070092;28;20132;-69
2024/01/31 07:03:34;;;;;;;4.28;1.20;;;;;;;;;;5071286;28;20123;-68
2024/01/31 07:06:00;;;;;;;3.67;0.93;;;;;;;;;;5064881;28;20079;-70
2024/01/31 07:08:26;;;;;;;3.40;0.90;;;;;;;;;;5051833;28;20060;-68
2024/01/31 07:10:52;;;;;;;4.60;1.23;;;;;;;;;;5049913;28;20048;-69
2024/01/31 07:13:18;;;;;;;2.08;0.60;;;;;;;;;;5050270;28;20452;-69
2024/01/31 07:15:44;;;;;;;5.72;1.38;;;;;;;;;;5045168;28;20091;-67
2024/01/31 07:18:11;;;;;;;1.45;0.50;;;;;;;;;;5035203;28;20092;-69
2024/01/31 07:20:37;;;;;;;3.00;0.93;;;11.80;95.50;;;;;;5033909;28;20056;-67
2024/01/31 07:23:03;;;;;;;4.80;1.50;;;;;;;;;;5017348;28;20510;-70
2024/01/31 07:25:29;;;;;;;4.13;1.13;;;;;;;;;;5048647;28;20045;-69
2024/01/31 07:27:55;;;;;;;1.67;0.43;;;;;;;;;;5073879;28;20063;-69
2024/01/31 07:30:21;;;;;;;5.93;1.50;;;11.70;95.40;;;;;;5073580;28;20052;-68
2024/01/31 07:32:46;;;;;;;3.72;1.02;;;11.80;94.70;;;;;;5075120;28;20086;-68
2024/01/31 07:35:12;;;;;;;3.75;1.33;;;11.90;95.40;;;;;;5075008;28;20094;-67
2024/01/31 07:37:38;;;;;;;3.72;1.13;;;;;;;;;;5074930;28;20048;-69
2024/01/31 07:40:09;;;;;;;5.40;1.40;;;11.70;95.20;;;;;;5074701;28;20069;-69
2024/01/31 07:42:36;;;;;;;2.63;0.68;;;;;;;;;;5074139;28;20457;-70
2024/01/31 07:45:02;;;;;;;2.03;0.57;;;11.80;94.40;;;;;;5074838;28;20044;-69
2024/01/31 07:47:28;;;;;;;2.55;0.65;;;;;;;;;;5074557;28;20048;-69
2024/01/31 07:49:54;;;;;;;2.88;1.00;;;11.90;94.60;;;;;;5073210;28;20051;-68
2024/01/31 07:52:20;;;;;;;3.88;1.23;;;;;;;;;;5073199;28;20048;-69
2024/01/31 07:54:46;;;;;;;4.47;1.38;;;;;;;;;;5074384;28;20541;-69
2024/01/31 07:57:13;;;;;;;2.90;1.02;;;;;;;;;;5074682;28;20127;-69
2024/01/31 07:59:39;;;;;;;4.25;1.05;;;;;;;;;;5073808;28;20055;-69
2024/01/31 08:02:05;;;;;;;4.63;1.10;;;;;;;;;;5072991;28;20077;-69
2024/01/31 08:04:31;;;;;;;3.25;0.80;;;;;;;;;;5061661;28;20340;-67
2024/01/31 08:06:57;;;;;;;6.85;1.80;;;;;;;;;;5054079;28;20068;-68
2024/01/31 08:09:23;;;;;;;4.05;0.98;;;;;;;;;;5054179;28;20053;-69
2024/01/31 08:11:49;;;;;;;5.53;1.27;;;;;;;;;;5054031;28;20049;-70
2024/01/31 08:14:16;;;;;;;5.03;1.30;;;;;;;;;;5036143;28;20678;-67
2024/01/31 08:16:42;;;;;;;4.93;1.40;;;;;;;;;;5049810;28;20056;-67
2024/01/31 08:19:08;;;;;;;4.45;1.23;;;12.00;95.30;;;;;;5054245;28;20455;-68
2024/01/31 08:21:36;;;;;;;3.88;1.15;;;;;;;;;;5054260;28;20084;-67
2024/01/31 08:24:02;;;;;;;4.00;1.20;;;;;;;;;;5054067;28;20048;-68
2024/01/31 08:26:27;;;;;;;4.55;1.13;;;11.90;94.30;;;;;;5053654;28;20080;-66
2024/01/31 08:28:54;;;;;;;4.40;1.17;;;;;;;;;;5053720;28;20076;-67
2024/01/31 08:31:20;;;;;;;4.80;1.33;;;;;;;;;;5053779;28;20056;-67
2024/01/31 08:33:47;;;;;;;3.30;1.02;;;;;;;;;;5054607;28;20055;-67
2024/01/31 08:36:13;;;;;;;3.78;1.20;;;11.90;95.20;;;;;;5053890;28;20076;-70
2024/01/31 08:38:40;;;;;;;4.60;1.30;;;11.90;95.20;;;;;;5053564;28;20502;-69
2024/01/31 08:41:06;;;;;;;4.20;1.20;;;11.80;95.20;;;;;;5052217;28;20075;-69
2024/01/31 08:43:32;;;;;;;4.03;1.30;;;;;;;;;;5052374;28;20037;-69
2024/01/31 08:45:58;;;;;;;5.20;1.63;;;;;;;;;;5052476;28;20056;-67
2024/01/31 08:48:24;;;;;;;5.35;1.52;;;12.00;95.10;;;;;;5053651;28;20033;-67
2024/01/31 08:50:51;;;;;;;5.20;1.58;;;;;;;;;;5052685;28;20071;-68
2024/01/31 08:53:17;;;;;;;7.00;1.48;;;;;;;;;;5052322;28;20056;-68
2024/01/31 08:55:43;;;;;;;7.35;1.65;;;;;;;;;;5053557;28;20063;-67
2024/01/31 08:58:09;;;;;;;7.05;1.40;;;12.10;95.00;;;;;;5052019;28;20057;-70
2024/01/31 09:00:35;;;;;;;4.82;1.40;;;;;;;;;;5053478;28;20534;-69
2024/01/31 09:03:03;;;;;;;5.28;1.35;;;;;;;;;;5053031;28;20057;-67
2024/01/31 09:05:29;;;;;;;6.13;1.50;;;12.00;94.80;;;;;;5053384;28;20102;-69
2024/01/31 09:07:55;;;;;;;4.55;1.40;;;12.00;94.90;;;;;;5062811;28;20487;-70
2024/01/31 09:10:21;;;;;;;4.85;1.35;;;;;;;;;;5073395;28;20060;-67
2024/01/31 09:12:47;;;;;;;5.10;1.55;;;;;;;;;;5072913;28;20489;-68
2024/01/31 09:15:14;;;;;;;4.07;1.50;;;;;;;;;;5070649;28;20075;-68
2024/01/31 09:17:40;;;;;;;5.55;2.10;;;;;;;;;;5051621;28;20052;-67
2024/01/31 09:20:07;;;;;;;4.40;1.35;;;12.00;94.90;;;;;;5053111;28;20067;-70
2024/01/31 09:22:33;;;;;;;4.82;1.48;;;;;;;;;;5051595;28;20060;-68
2024/01/31 09:24:59;;;;;;;4.70;1.50;;;;;;;;;;5053530;28;20056;-70
2024/01/31 09:27:24;;;;;;;5.47;1.60;;;12.10;94.80;;;;;;5053092;28;20056;-69
2024/01/31 09:29:50;;;;;;;4.35;1.40;;;;;;;;;;5053295;28;20060;-67
2024/01/31 09:32:16;;;;;;;5.07;1.65;;;12.00;94.00;;;;;;5053141;28;20504;-69
2024/01/31 09:34:42;;;;;;;4.60;1.60;;;12.10;94.80;;;;;;5045984;28;20049;-69
2024/01/31 09:37:09;;;;;;;5.15;1.70;;;;;;;;;;5032881;28;20057;-67
2024/01/31 09:39:35;;;;;;;5.88;1.80;;;;;;;;;;5032299;28;20084;-69
2024/01/31 09:42:02;;;;;;;4.70;1.70;;;;;;;;;;5054563;28;20053;-68
2024/01/31 09:44:29;;;;;;;4.88;1.80;;;;;;;;;;5071026;28;20056;-70
2024/01/31 09:46:55;;;;;;;5.20;2.00;;;;;;;;;;5072370;28;20592;-69
2024/01/31 09:49:21;;;;;;;4.78;2.10;;;;;;;;;;5071056;28;20451;-67
2024/01/31 09:51:47;;;;;;;6.18;2.10;;;12.10;94.50;;;;;;5054683;28;20068;-70
2024/01/31 09:54:13;;;;;;;4.68;1.80;;;;;;;;;;5052461;28;20041;-70
2024/01/31 09:56:40;;;;;;;6.70;1.95;;;;;;;;;;5051240;28;20368;-67
2024/01/31 09:59:06;;;;;;;4.78;2.00;;;;;;;;;;5052713;28;20057;-68
2024/01/31 10:01:32;;;;;;;5.75;2.30;;;;;;;;;;5034568;28;20048;-69
2024/01/31 10:03:58;;;;;;;5.10;2.10;;;12.20;94.30;;;;;;5050778;28;20057;-66
2024/01/31 10:06:25;;;;;;;6.05;2.17;;;12.20;94.20;;;;;;5050819;28;20102;-68
2024/01/31 10:08:51;;;;;;;4.82;2.25;;;;;;;;;;5051894;28;20068;-67
2024/01/31 10:11:16;;;;;;;5.50;2.10;;;12.20;94.30;;;;;;5050657;28;20055;-67
2024/01/31 10:13:42;;;;;;;4.70;1.90;;;12.30;94.20;;;;;;5050570;28;20123;-66
2024/01/31 10:16:08;;;;;;;5.45;2.30;;;12.30;94.40;;;;;;5062437;28;20105;-66
2024/01/31 10:18:34;;;;;;;4.50;2.17;;;;;;;;;;5070669;28;20053;-67
2024/01/31 10:21:01;;;;;;;4.93;2.20;;;;;;;;;;5070743;28;20048;-68
2024/01/31 10:23:27;;;;;;;5.38;2.50;;;;;;;;;;5072055;28;20048;-68
2024/01/31 10:25:53;;;;;;;4.85;2.30;;;;;;;;;;5071719;28;20049;-67
2024/01/31 10:28:19;;;;;;;6.32;2.13;;;;;;;;;;5070787;28;20091;-69
2024/01/31 10:30:46;;;;;;;5.40;2.50;;;;;;;;;;5071780;28;20520;-68
2024/01/31 10:33:12;;;;;;;6.65;2.85;;;;;;;;;;5053239;28;20139;-68
2024/01/31 10:35:42;;;;;;;7.57;3.05;;;12.50;93.10;;;;;;5070640;28;20056;-68
2024/01/31 10:38:08;;;;;;;5.03;2.58;;;;;;;;;;5070605;28;20102;-67
2024/01/31 10:40:34;;;;;;;5.00;2.83;;;;;;;;;;5070401;28;20068;-70
2024/01/31 10:43:01;;;;;;;5.03;2.88;;;12.40;94.30;;;;;;5070276;28;20241;-69
2024/01/31 10:45:33;;;;;;;4.70;2.80;;;;;;;;;;5054386;28;20083;-70
2024/01/31 10:47:59;;;;;;;5.53;3.00;;;12.40;94.20;;;;;;5069901;28;20083;-69
2024/01/31 10:50:25;;;;;;;5.30;2.97;;;12.20;94.20;;;;;;5044399;28;20078;-70
2024/01/31 10:52:51;;;;;;;4.32;2.92;;;;;;;;;;5035715;28;20058;-70
2024/01/31 10:55:17;;;;;;;5.75;3.35;;;;;;;;;;5034609;28;20107;-68
2024/01/31 10:57:43;;;;;;;5.00;3.05;;;;;;;;;;5035557;28;20089;-69
2024/01/31 11:00:09;;;;;;;6.00;2.97;;;12.30;92.90;;;;;;5034280;28;20045;-68
2024/01/31 11:02:35;;;;;;;4.60;2.70;;;;;;;;;;5035775;28;20029;-68
2024/01/31 11:05:03;;;;;;;6.50;3.38;;;;;;;;;;5034055;28;20058;-69
2024/01/31 11:07:29;;;;;;;5.65;3.28;;;12.30;94.20;;;;;;5051346;28;20040;-66
2024/01/31 11:09:55;;;;;;;6.32;3.53;;;;;;;;;;5037980;28;20053;-67
2024/01/31 11:12:21;;;;;;;5.22;3.22;;;;;;;;;;5037699;28;20075;-68
2024/01/31 11:14:50;;;;;;;5.00;3.08;;;;;;;;;;5055218;28;20045;-67
2024/01/31 11:17:16;;;;;;;5.28;3.28;;;;;;;;;;5037916;28;20053;-67
2024/01/31 11:19:47;;;;;;;6.28;3.33;;;12.30;92.80;;;;;;5055361;28;20203;-67
2024/01/31 11:22:13;;;;;;;5.25;3.25;;;;;;;;;;5037637;28;20053;-67
2024/01/31 11:24:43;;;;;;;6.22;3.45;;;;;;;;;;5054220;28;20052;-67
2024/01/31 11:27:09;;;;;;;5.57;3.22;;;;;;;;;;5054977;28;20102;-68
2024/01/31 11:29:35;;;;;;;5.15;3.40;;;;;;;;;;5053896;28;20355;-70
2024/01/31 11:32:01;;;;;;;5.53;3.40;;;;;;;;;;5053506;28;20049;-68
2024/01/31 11:34:28;;;;;;;5.65;3.72;;;;;;;;;;5054770;28;20053;-68
2024/01/31 11:36:54;;;;;;;5.38;3.50;;;;;;;;;;5053340;28;20482;-68
2024/01/31 11:39:19;;;;;;;5.90;3.28;;;12.40;94.00;;;;;;5054626;28;20053;-69
2024/01/31 11:41:45;;;;;;;5.25;3.55;;;12.20;92.60;;;;;;5071431;28;20059;-69
2024/01/31 11:44:11;;;;;;;6.18;3.40;;;;;;;;;;5073163;28;20054;-67
2024/01/31 11:46:37;;;;;;;5.10;3.30;;;;;;;;;;5066622;28;20496;-67
2024/01/31 11:49:04;;;;;;;5.75;3.50;;;;;;;;;;5053608;28;20040;-69
2024/01/31 11:51:30;;;;;;;5.30;3.42;;;;;;;;;;5039014;28;20052;-67
2024/01/31 11:53:56;;;;;;;5.35;3.58;;;;;;;;;;5034557;28;20049;-66
2024/01/31 11:56:22;;;;;;;4.82;3.22;;;;;;;;;;5034801;28;20056;-69
2024/01/31 11:58:51;;;;;;;6.22;3.58;;;;;;;;;;5052746;28;20053;-69
2024/01/31 12:01:16;;;;;;;5.75;3.38;;;12.30;93.90;;;;;;5053862;28;20049;-67
2024/01/31 12:03:43;;;;;;;9.05;3.55;;;12.40;93.90;;;;;;5054460;28;20116;-69
2024/01/31 12:06:09;;;;;;;5.15;3.63;;;12.30;92.50;;;;;;5054532;28;20049;-68
2024/01/31 12:08:35;;;;;;;5.53;3.30;;;12.50;94.00;;;;;;5052787;28;20425;-69
2024/01/31 12:11:00;;;;;;;5.55;3.63;;;12.50;93.30;;;;;;5053204;28;20099;-67
2024/01/31 12:13:27;;;;;;;5.85;3.58;;;12.40;92.80;;;;;;5053101;28;20136;-66
2024/01/31 12:15:55;;;;;;;5.40;3.20;;;12.50;92.80;;;;;;5054602;28;20080;-69
2024/01/31 12:18:21;;;;;;;5.18;3.33;;;12.30;93.90;;;;;;5054287;28;20059;-67
2024/01/31 12:20:47;;;;;;;5.28;3.17;;;;;;;;;;5054243;28;20107;-67
2024/01/31 12:23:12;;;;;;;5.75;3.40;;;12.40;93.90;;;;;;5052575;28;20110;-69
2024/01/31 12:25:38;;;;;;;4.85;3.25;;;;;;;;;;5054189;28;20725;-68
2024/01/31 12:28:05;;;;;;;5.90;3.10;;;12.40;92.80;;;;;;5054034;28;20132;-69
2024/01/31 12:30:31;;;;;;;5.25;3.00;;;;;;;;;;5053806;28;20102;-67
2024/01/31 12:32:57;;;;;;;4.85;3.13;;;;;;;;;;5054615;28;20045;-68
2024/01/31 12:35:23;;;;;;;5.35;3.38;;;12.40;93.90;;;;;;5054039;28;20429;-70
2024/01/31 12:37:49;;;;;;;5.25;3.22;;;;;;;;;;5052091;28;20049;-69
2024/01/31 12:40:15;;;;;;;6.55;3.65;;;12.40;93.90;;;;;;5068751;28;20060;-69
2024/01/31 12:42:41;;;;;;;5.53;3.67;;;12.50;93.30;;;;;;5052285;28;20053;-68
2024/01/31 12:45:08;;;;;;;5.38;3.50;;;;;;;;;;5069091;28;20044;-67
2024/01/31 12:47:34;;;;;;;5.28;3.60;;;;;;;;;;5053531;28;20091;-69
2024/01/31 12:50:00;;;;;;;4.97;3.53;;;12.30;93.40;;;;;;5068122;28;20048;-65
2024/01/31 12:52:26;;;;;;;4.95;3.33;;;12.40;93.90;;;;;;5052390;28;20067;-64
2024/01/31 12:54:51;;;;;;;4.75;3.25;;;12.30;93.90;;;;;;5053339;28;20041;-67
2024/01/31 12:57:18;;;;;;;5.93;3.38;;;;;;;;;;5053316;28;20060;-67
2024/01/31 12:59:46;;;;;;;5.20;3.40;;;;;;;;;;5053262;28;20490;-68
2024/01/31 13:02:12;;;;;;;6.93;3.65;;;12.20;93.90;;;;;;5051870;28;20571;-68
2024/01/31 13:04:38;;;;;;;6.65;3.45;;;;;;;;;;5053076;28;20118;-69
2024/01/31 13:07:04;;;;;;;6.35;3.60;;;;;;;;;;5052305;28;20144;-68
2024/01/31 13:09:30;;;;;;;5.18;3.47;;;;;;;;;;5053365;28;20095;-68
2024/01/31 13:11:56;;;;;;;4.93;3.45;;;;;;;;;;5053323;28;20367;-66
2024/01/31 13:14:22;;;;;;;4.95;3.65;;;;;;;;;;5050765;28;20076;-67
2024/01/31 13:16:48;;;;;;;7.05;3.85;;;;;;;;;;5052955;28;20041;-69
2024/01/31 13:19:15;;;;;;;5.70;3.67;;;;;;;;;;5052915;28;20145;-69
2024/01/31 13:21:43;;;;;;;5.13;3.58;;;12.10;92.90;;;;;;5051871;28;20088;-68
2024/01/31 13:24:09;;;;;;;5.50;3.83;;;;;;;;;;5070862;28;20101;-68
2024/01/31 13:26:35;;;;;;;6.70;4.00;;;;;;;;;;5071456;28;20048;-67
2024/01/31 13:39:46;;;;;;;5.10;4.10;;;;;;;;;;5071463;28;20121;-70
2024/01/31 13:42:12;;;;;;;6.25;4.13;;;;;;;;;;5072496;28;20060;-67
2024/01/31 13:44:38;;;;;;;6.82;4.43;;;12.30;93.90;;;;;;5071077;28;20059;-69
2024/01/31 13:47:04;;;;;;;5.78;4.30;;;;;;;;;;5071278;28;20044;-67
2024/01/31 13:49:33;;;;;;;6.63;4.80;;;12.30;92.70;;;;;;5071282;28;20472;-67
2024/01/31 13:51:59;;;;;;;5.88;4.28;;;;;;;;;;5053061;28;20048;-69
2024/01/31 13:54:25;;;;;;;7.32;4.88;;;;;;;;;;5034390;28;20080;-68
2024/01/31 13:56:51;;;;;;;5.78;4.72;;;;;;;;;;5052786;28;20119;-70
2024/01/31 13:59:17;;;;;;;7.45;4.88;;;;;;;;;;5052145;28;20048;-67
2024/01/31 14:01:43;;;;;;;8.50;5.07;;;;;;;;;;5051175;28;20456;-69